Terminal Aerodrome Forecast
Issued by NWS

Home | Current Version | Previous Version | Text Only | Print | Product List | Glossary On
Versions: 1 2 3 4 5 6 7 8 9 10 11 12 13 14 15 16 17 18 19 20 21 22 23 24 25 26
000
FTUS46 KOTX 050520
TAFPUW
TAF
KPUW 050520Z 0506/0606 26012KT P6SM -SHRA SCT035 BKN050 OVC090
     FM050800 27007KT 5SM -RA BR BKN025 OVC040
     FM051200 27008KT 4SM RA BR BKN015 OVC040
     FM051600 24014G20KT P6SM -RA SCT015 BKN025 OVC040
     FM060100 24008KT P6SM VCSH SCT040 BKN060 OVC100=

USA.gov is the U.S. government's official web portal to all federal, state and local government web resources and services.